createdAt,value
2022-10-06T00:01:13.751Z,100.00
2022-10-06T00:03:42.169Z,100.00
2022-10-06T00:06:12.412Z,100.00
2022-10-06T00:08:41.820Z,100.00
2022-10-06T00:11:12.699Z,100.00
2022-10-06T00:13:41.283Z,100.00
2022-10-06T00:16:11.521Z,100.00
2022-10-06T00:18:39.835Z,100.00
2022-10-06T00:21:07.311Z,100.00
2022-10-06T00:23:34.853Z,100.00
2022-10-06T00:26:02.423Z,100.00
2022-10-06T00:28:30.383Z,100.00
2022-10-06T00:31:01.780Z,100.00
2022-10-06T00:33:29.472Z,100.00
2022-10-06T00:36:01.039Z,100.00
2022-10-06T00:38:29.412Z,100.00
2022-10-06T00:40:57.384Z,100.00
2022-10-06T00:43:57.019Z,100.00
2022-10-06T00:46:34.229Z,100.00
2022-10-06T00:49:07.824Z,100.00
2022-10-06T00:51:39.559Z,100.00
2022-10-06T00:54:09.191Z,100.00
2022-10-06T00:56:39.908Z,100.00
2022-10-06T00:59:18.927Z,100.00
2022-10-06T01:01:54.871Z,100.00
2022-10-06T01:04:24.299Z,100.00
2022-10-06T01:06:55.467Z,100.00
2022-10-06T01:09:24.224Z,100.00
2022-10-06T01:11:57.705Z,100.00
2022-10-06T01:14:26.345Z,100.00
2022-10-06T01:16:59.875Z,100.00
2022-10-06T01:19:52.090Z,100.00
2022-10-06T01:22:36.529Z,100.00
2022-10-06T01:25:08.869Z,100.00
2022-10-06T01:27:39.252Z,100.00
2022-10-06T01:30:14.363Z,100.00
2022-10-06T01:32:42.320Z,100.00
2022-10-06T01:35:11.515Z,100.00
2022-10-06T01:37:40.417Z,100.00
2022-10-06T01:40:09.746Z,100.00
2022-10-06T01:42:38.158Z,100.00
2022-10-06T01:45:06.833Z,100.00
2022-10-06T01:47:35.056Z,100.00
2022-10-06T01:50:04.580Z,100.00
2022-10-06T01:52:32.393Z,100.00
2022-10-06T01:54:59.881Z,100.00
2022-10-06T01:57:27.525Z,100.00
2022-10-06T01:59:55.239Z,100.00
2022-10-06T02:02:24.285Z,100.00
2022-10-06T02:04:52.395Z,100.00
2022-10-06T02:07:20.344Z,100.00
2022-10-06T02:09:48.200Z,100.00
2022-10-06T02:12:17.381Z,100.00
2022-10-06T02:14:44.927Z,100.00
2022-10-06T02:17:12.814Z,100.00
2022-10-06T02:19:40.544Z,100.00
2022-10-06T02:22:08.171Z,100.00
2022-10-06T02:24:38.440Z,100.00
2022-10-06T02:27:07.015Z,100.00
2022-10-06T02:29:35.342Z,100.00
2022-10-06T02:32:03.913Z,100.00
2022-10-06T02:34:31.504Z,100.00
2022-10-06T02:36:58.972Z,100.00
2022-10-06T02:39:26.604Z,100.00
2022-10-06T02:41:54.088Z,100.00
2022-10-06T02:44:25.034Z,100.00
2022-10-06T02:46:54.438Z,100.00
2022-10-06T02:49:22.052Z,100.00
2022-10-06T02:51:50.261Z,100.00
2022-10-06T02:54:17.881Z,100.00
2022-10-06T02:56:46.624Z,100.00
2022-10-06T02:59:14.055Z,100.00
2022-10-06T03:01:43.216Z,100.00
2022-10-06T03:04:15.618Z,100.00
2022-10-06T03:06:43.700Z,100.00
2022-10-06T03:09:22.856Z,100.00
2022-10-06T03:11:51.691Z,100.00
2022-10-06T03:14:28.860Z,100.00
2022-10-06T03:16:57.486Z,100.00
2022-10-06T03:19:27.569Z,100.00
2022-10-06T03:21:55.378Z,100.00
2022-10-06T03:24:29.335Z,100.00
2022-10-06T03:26:59.594Z,100.00
2022-10-06T03:29:29.668Z,100.00
2022-10-06T03:31:58.598Z,100.00
2022-10-06T03:34:26.694Z,100.00
2022-10-06T03:36:58.303Z,100.00
2022-10-06T03:39:27.655Z,100.00
2022-10-06T03:41:55.219Z,100.00
2022-10-06T03:44:23.649Z,100.00
2022-10-06T03:46:52.370Z,100.00
2022-10-06T03:49:20.328Z,100.00
2022-10-06T03:51:48.847Z,100.00
2022-10-06T03:54:21.509Z,100.00
2022-10-06T03:56:50.896Z,100.00
2022-10-06T03:59:19.655Z,100.00
2022-10-06T04:01:48.821Z,100.00
2022-10-06T04:04:38.175Z,100.00
2022-10-06T04:07:10.190Z,100.00
2022-10-06T04:09:37.985Z,100.00
2022-10-06T04:12:05.581Z,100.00
2022-10-06T04:14:37.336Z,100.00
2022-10-06T04:17:06.548Z,100.00
2022-10-06T04:19:42.097Z,100.00
2022-10-06T04:22:09.733Z,100.00
2022-10-06T04:24:37.725Z,100.00
2022-10-06T04:27:23.884Z,100.00
2022-10-06T04:29:57.984Z,100.00
2022-10-06T04:32:29.715Z,100.00
2022-10-06T04:34:57.513Z,100.00
2022-10-06T04:37:28.103Z,100.00
2022-10-06T04:39:56.244Z,100.00
2022-10-06T04:42:24.137Z,100.00
2022-10-06T04:44:51.595Z,100.00
2022-10-06T04:47:19.064Z,100.00
2022-10-06T04:49:47.636Z,100.00
2022-10-06T04:52:17.260Z,100.00
2022-10-06T04:54:45.174Z,100.00
2022-10-06T04:57:13.310Z,100.00
2022-10-06T05:00:05.320Z,100.00
2022-10-06T05:02:37.207Z,100.00
2022-10-06T05:05:08.019Z,100.00
2022-10-06T05:07:37.193Z,100.00
2022-10-06T05:10:05.021Z,100.00
2022-10-06T05:12:32.788Z,100.00
2022-10-06T05:15:04.160Z,100.00
2022-10-06T05:17:32.169Z,100.00
2022-10-06T05:20:02.797Z,100.00
2022-10-06T05:22:30.629Z,100.00
2022-10-06T05:24:58.710Z,100.00
2022-10-06T05:27:26.568Z,100.00
2022-10-06T05:29:54.112Z,100.00
2022-10-06T05:32:21.839Z,100.00
2022-10-06T05:34:49.424Z,100.00
2022-10-06T05:37:16.925Z,100.00
2022-10-06T05:39:45.092Z,100.00
2022-10-06T05:42:12.914Z,100.00
2022-10-06T05:44:41.713Z,100.00
2022-10-06T05:47:11.501Z,100.00
2022-10-06T05:49:39.114Z,100.00
2022-10-06T05:52:07.260Z,100.00
2022-10-06T05:54:36.759Z,100.00
2022-10-06T05:57:06.038Z,100.00
2022-10-06T05:59:34.792Z,100.00
2022-10-06T06:02:05.475Z,100.00
2022-10-06T06:04:41.018Z,100.00
2022-10-06T06:07:09.571Z,100.00
2022-10-06T06:09:38.670Z,100.00
2022-10-06T06:12:06.371Z,100.00
2022-10-06T06:15:28.503Z,100.00
2022-10-06T06:18:06.105Z,100.00
2022-10-06T06:20:34.293Z,100.00
2022-10-06T06:23:01.934Z,100.00
2022-10-06T06:25:30.731Z,100.00
2022-10-06T06:27:59.456Z,100.00
2022-10-06T06:30:27.288Z,100.00
2022-10-06T06:33:00.219Z,100.00
2022-10-06T06:35:28.604Z,100.00
2022-10-06T06:37:56.361Z,100.00
2022-10-06T06:40:25.440Z,100.00
2022-10-06T06:42:54.027Z,100.00
2022-10-06T06:45:53.734Z,100.00
2022-10-06T06:48:33.702Z,100.00
2022-10-06T06:51:01.745Z,100.00
2022-10-06T06:53:31.972Z,100.00
2022-10-06T06:56:01.357Z,100.00
2022-10-06T06:58:32.806Z,100.00
2022-10-06T07:01:14.842Z,100.00
2022-10-06T07:04:03.639Z,100.00
2022-10-06T07:06:37.685Z,100.00
2022-10-06T07:09:05.659Z,100.00
2022-10-06T07:11:37.438Z,100.00
2022-10-06T07:14:12.765Z,100.00
2022-10-06T07:17:02.331Z,100.00
2022-10-06T07:19:48.865Z,100.00
2022-10-06T07:22:38.755Z,100.00
2022-10-06T07:25:26.832Z,100.00
2022-10-06T07:28:06.884Z,100.00
2022-10-06T07:30:41.355Z,100.00
2022-10-06T07:33:20.971Z,100.00
2022-10-06T07:35:49.839Z,100.00
2022-10-06T07:38:25.881Z,100.00
2022-10-06T07:41:17.887Z,100.00
2022-10-06T07:43:46.987Z,100.00
2022-10-06T07:46:16.162Z,100.00
2022-10-06T07:48:49.268Z,100.00
2022-10-06T07:51:19.436Z,100.00
2022-10-06T07:53:50.401Z,100.00
2022-10-06T07:56:27.045Z,99.71
2022-10-06T07:58:58.749Z,98.93
2022-10-06T08:01:27.559Z,100.00
2022-10-06T08:03:55.111Z,100.00
2022-10-06T08:06:23.804Z,98.41
2022-10-06T08:08:53.394Z,98.77
2022-10-06T08:11:22.857Z,97.03
2022-10-06T08:13:52.009Z,96.72
2022-10-06T08:16:22.629Z,95.93
2022-10-06T08:18:54.858Z,95.31
2022-10-06T08:21:31.399Z,91.86
2022-10-06T08:23:59.507Z,89.52
2022-10-06T08:26:31.256Z,90.40
2022-10-06T08:29:03.113Z,90.37
2022-10-06T08:31:32.002Z,90.47
2022-10-06T08:33:59.786Z,90.21
2022-10-06T08:36:31.339Z,90.40
2022-10-06T08:39:00.632Z,89.21
2022-10-06T08:41:28.208Z,88.80
2022-10-06T08:44:18.602Z,87.04
2022-10-06T08:46:55.143Z,85.86
2022-10-06T08:49:27.372Z,83.70
2022-10-06T08:52:22.478Z,83.17
2022-10-06T08:55:14.969Z,83.92
2022-10-06T08:58:16.285Z,83.52
2022-10-06T09:00:44.604Z,82.79
2022-10-06T09:03:24.170Z,84.04
2022-10-06T09:06:03.876Z,85.03
2022-10-06T09:08:50.809Z,83.94
2022-10-06T09:11:43.284Z,83.00
2022-10-06T09:14:20.437Z,83.49
2022-10-06T09:16:53.773Z,82.57
2022-10-06T09:19:35.924Z,83.35
2022-10-06T09:22:06.888Z,83.49
2022-10-06T09:24:41.404Z,84.42
2022-10-06T09:27:33.499Z,84.60
2022-10-06T09:30:02.625Z,84.27
2022-10-06T09:32:31.477Z,83.25
2022-10-06T09:35:04.680Z,83.49
2022-10-06T09:38:07.867Z,81.49
2022-10-06T09:40:39.411Z,80.36
2022-10-06T09:43:27.570Z,79.82
2022-10-06T09:45:56.662Z,79.76
2022-10-06T09:48:26.580Z,79.64
2022-10-06T09:51:09.162Z,79.93
2022-10-06T09:53:39.193Z,79.88
2022-10-06T09:56:19.889Z,79.44
2022-10-06T09:58:58.641Z,77.92
2022-10-06T10:01:31.884Z,76.66
2022-10-06T10:04:20.461Z,75.55
2022-10-06T10:06:50.378Z,75.48
2022-10-06T10:09:22.419Z,75.85
2022-10-06T10:12:24.595Z,76.57
2022-10-06T10:15:24.208Z,77.15
2022-10-06T10:17:55.526Z,77.35
2022-10-06T10:20:28.219Z,78.16
2022-10-06T10:22:59.585Z,77.35
2022-10-06T10:25:40.578Z,75.76
2022-10-06T10:28:11.236Z,73.06
2022-10-06T10:31:13.636Z,72.34
2022-10-06T10:34:35.006Z,73.37
2022-10-06T10:37:25.902Z,73.89
2022-10-06T10:40:03.038Z,74.79
2022-10-06T10:42:46.060Z,76.51
2022-10-06T10:45:27.200Z,75.09
2022-10-06T10:47:56.783Z,74.46
2022-10-06T10:50:42.821Z,71.79
2022-10-06T10:53:44.167Z,72.78
2022-10-06T10:56:16.530Z,70.64
2022-10-06T10:58:47.951Z,71.08
2022-10-06T11:01:38.862Z,72.13
2022-10-06T11:04:11.662Z,72.37
2022-10-06T11:06:48.260Z,70.47
2022-10-06T11:09:44.628Z,69.86
2022-10-06T11:12:41.482Z,70.24
2022-10-06T11:15:14.896Z,66.07
2022-10-06T11:17:47.242Z,66.69
2022-10-06T11:20:20.828Z,66.49
2022-10-06T11:22:58.756Z,64.18
2022-10-06T11:25:43.646Z,64.32
2022-10-06T11:28:26.836Z,65.04
2022-10-06T11:31:23.181Z,65.65
2022-10-06T11:33:55.908Z,67.36
2022-10-06T11:36:23.876Z,67.38
2022-10-06T11:39:25.432Z,69.75
2022-10-06T11:42:02.821Z,68.92
2022-10-06T11:44:44.649Z,66.87
2022-10-06T11:47:35.568Z,64.12
2022-10-06T11:50:24.049Z,63.30
2022-10-06T11:52:53.063Z,64.21
2022-10-06T11:55:24.074Z,64.45
2022-10-06T11:58:37.318Z,64.18
2022-10-06T12:01:02.294Z,64.39
2022-10-06T12:03:31.198Z,63.77
2022-10-06T12:05:59.812Z,64.32
2022-10-06T12:08:40.858Z,64.84
2022-10-06T12:11:43.060Z,65.07
2022-10-06T12:18:00.800Z,63.70
2022-10-06T12:20:38.610Z,60.88
2022-10-06T12:23:09.159Z,62.67
2022-10-06T12:25:47.340Z,63.20
2022-10-06T12:28:44.523Z,61.94
2022-10-06T12:31:18.319Z,63.09
2022-10-06T12:33:46.921Z,64.28
2022-10-06T12:36:24.208Z,64.65
2022-10-06T12:39:05.330Z,64.04
2022-10-06T12:42:19.868Z,64.04
2022-10-06T12:44:50.030Z,63.82
2022-10-06T12:47:25.747Z,63.81
2022-10-06T12:50:20.773Z,65.10
2022-10-06T12:52:59.079Z,64.71
2022-10-06T12:55:49.115Z,63.31
2022-10-06T12:58:32.536Z,63.76
2022-10-06T13:01:13.059Z,63.57
2022-10-06T13:03:48.388Z,63.28
2022-10-06T13:06:21.429Z,61.49
2022-10-06T13:09:06.092Z,61.03
2022-10-06T13:11:35.485Z,60.71
2022-10-06T13:14:29.151Z,60.69
2022-10-06T13:16:59.776Z,61.05
2022-10-06T13:19:31.446Z,60.56
2022-10-06T13:22:02.920Z,63.10
2022-10-06T13:24:30.640Z,61.78
2022-10-06T13:26:58.133Z,61.19
2022-10-06T13:29:26.505Z,62.77
2022-10-06T13:31:55.668Z,60.16
2022-10-06T13:34:32.894Z,58.58
2022-10-06T13:37:01.527Z,58.70
2022-10-06T13:39:32.986Z,58.49
2022-10-06T13:42:10.270Z,58.55
2022-10-06T13:44:42.378Z,57.61
2022-10-06T13:47:19.363Z,56.79
2022-10-06T13:50:18.808Z,57.12
2022-10-06T13:52:48.932Z,57.48
2022-10-06T13:55:27.712Z,59.82
2022-10-06T13:58:03.508Z,58.14
2022-10-06T14:00:57.857Z,60.15
2022-10-06T14:06:15.605Z,60.60
2022-10-06T14:08:49.455Z,59.62
2022-10-06T14:11:24.841Z,59.73
2022-10-06T14:13:56.243Z,59.58
2022-10-06T14:16:25.991Z,59.89
2022-10-06T14:21:32.055Z,60.16
2022-10-06T14:24:04.859Z,60.81
2022-10-06T14:26:37.607Z,63.02
2022-10-06T14:29:06.355Z,63.45
2022-10-06T14:31:34.800Z,63.88
2022-10-06T14:34:03.700Z,62.72
2022-10-06T14:36:37.037Z,61.81
2022-10-06T14:39:06.767Z,62.06
2022-10-06T14:41:34.829Z,62.83
2022-10-06T14:44:09.128Z,63.34
2022-10-06T14:46:37.989Z,63.19
2022-10-06T14:49:07.697Z,65.23
2022-10-06T14:51:37.230Z,66.36
2022-10-06T14:54:07.477Z,66.18
2022-10-06T14:56:39.117Z,66.77
2022-10-06T14:59:09.402Z,67.09
2022-10-06T15:01:40.396Z,67.21
2022-10-06T15:04:12.061Z,67.16
2022-10-06T15:06:58.305Z,67.07
2022-10-06T15:09:26.512Z,67.68
2022-10-06T15:11:55.160Z,68.92
2022-10-06T15:14:24.509Z,69.29
2022-10-06T15:16:52.397Z,69.72
2022-10-06T15:19:20.975Z,73.24
2022-10-06T15:21:48.769Z,75.24
2022-10-06T15:24:18.485Z,75.96
2022-10-06T15:27:05.919Z,78.53
2022-10-06T15:29:38.866Z,77.57
2022-10-06T15:32:06.886Z,80.15
2022-10-06T15:34:37.709Z,80.57
2022-10-06T15:37:06.311Z,81.68
2022-10-06T15:39:37.509Z,84.31
2022-10-06T15:42:06.853Z,84.43
2022-10-06T15:44:35.304Z,86.58
2022-10-06T15:47:05.305Z,87.29
2022-10-06T15:49:38.217Z,89.73
2022-10-06T15:52:06.822Z,89.38
2022-10-06T15:54:40.862Z,89.87
2022-10-06T15:57:12.167Z,90.61
2022-10-06T15:59:41.552Z,92.22
2022-10-06T16:02:17.382Z,90.41
2022-10-06T16:05:14.042Z,90.28
2022-10-06T16:07:41.475Z,90.69
2022-10-06T16:10:13.598Z,89.58
2022-10-06T16:12:41.876Z,90.42
2022-10-06T16:15:09.842Z,91.71
2022-10-06T16:17:38.807Z,90.10
2022-10-06T16:20:07.098Z,89.35
2022-10-06T16:22:35.623Z,89.12
2022-10-06T16:25:03.514Z,89.44
2022-10-06T16:27:33.642Z,89.88
2022-10-06T16:30:01.737Z,90.54
2022-10-06T16:32:29.302Z,90.59
2022-10-06T16:34:57.528Z,90.75
2022-10-06T16:37:24.968Z,91.08
2022-10-06T16:39:52.952Z,90.39
2022-10-06T16:42:20.488Z,90.48
2022-10-06T16:44:47.960Z,91.67
2022-10-06T16:47:15.667Z,91.42
2022-10-06T16:49:43.126Z,91.77
2022-10-06T16:52:12.501Z,92.82
2022-10-06T16:54:40.106Z,93.43
2022-10-06T16:57:07.555Z,93.23
2022-10-06T16:59:34.973Z,93.30
2022-10-06T17:02:02.364Z,92.97
2022-10-06T17:04:30.171Z,93.24
2022-10-06T17:06:57.709Z,94.24
2022-10-06T17:09:29.213Z,94.75
2022-10-06T17:12:01.626Z,94.44
2022-10-06T17:14:32.185Z,94.81
2022-10-06T17:16:59.971Z,94.55
2022-10-06T17:19:29.656Z,94.82
2022-10-06T17:21:59.779Z,94.38
2022-10-06T17:24:29.650Z,95.29
2022-10-06T17:26:59.084Z,95.49
2022-10-06T17:29:27.296Z,94.58
2022-10-06T17:31:59.274Z,95.13
2022-10-06T17:34:31.697Z,94.86
2022-10-06T17:37:00.933Z,95.20
2022-10-06T17:39:28.600Z,95.01
2022-10-06T17:41:56.800Z,94.58
2022-10-06T17:44:28.864Z,95.12
2022-10-06T17:46:58.442Z,94.79
2022-10-06T17:49:26.972Z,95.07
2022-10-06T17:51:55.679Z,95.26
2022-10-06T17:54:25.187Z,95.75
2022-10-06T17:56:56.380Z,95.21
2022-10-06T17:59:28.522Z,94.60
2022-10-06T18:01:58.740Z,94.40
2022-10-06T18:04:27.241Z,93.77
2022-10-06T18:06:55.569Z,93.71
2022-10-06T18:09:24.392Z,93.09
2022-10-06T18:11:56.464Z,92.28
2022-10-06T18:14:27.123Z,93.08
2022-10-06T18:17:00.925Z,93.10
2022-10-06T18:19:31.388Z,92.73
2022-10-06T18:22:10.795Z,92.20
2022-10-06T18:24:39.938Z,91.88
2022-10-06T18:27:08.419Z,91.88
2022-10-06T18:29:38.812Z,90.98
2022-10-06T18:37:44.746Z,90.58
2022-10-06T18:40:14.754Z,90.75
2022-10-06T18:42:42.243Z,91.18
2022-10-06T18:45:30.424Z,90.84
2022-10-06T18:48:18.436Z,89.37
2022-10-06T18:50:47.170Z,87.96
2022-10-06T18:53:14.666Z,88.05
2022-10-06T18:55:42.100Z,88.17
2022-10-06T18:58:09.554Z,88.15
2022-10-06T19:00:37.038Z,89.16
2022-10-06T19:03:04.765Z,87.61
2022-10-06T19:05:32.718Z,88.12
2022-10-06T19:08:00.453Z,89.10
2022-10-06T19:10:29.855Z,88.66
2022-10-06T19:12:58.353Z,88.88
2022-10-06T19:15:26.360Z,88.80
2022-10-06T19:17:53.865Z,88.74
2022-10-06T19:20:23.330Z,89.05
2022-10-06T19:22:50.764Z,87.94
2022-10-06T19:25:19.196Z,87.15
2022-10-06T19:27:47.124Z,86.15
2022-10-06T19:30:14.856Z,85.38
2022-10-06T19:32:42.563Z,85.37
2022-10-06T19:35:10.812Z,84.15
2022-10-06T19:37:39.217Z,83.13
2022-10-06T19:40:08.836Z,83.35
2022-10-06T19:42:48.853Z,81.71
2022-10-06T19:45:20.712Z,82.08
2022-10-06T19:47:48.754Z,81.52
2022-10-06T19:50:17.335Z,80.56
2022-10-06T19:52:45.413Z,79.63
2022-10-06T19:55:13.044Z,79.75
2022-10-06T19:57:41.373Z,79.85
2022-10-06T20:00:10.336Z,79.55
2022-10-06T20:02:43.455Z,79.52
2022-10-06T20:05:16.765Z,80.06
2022-10-06T20:07:46.776Z,80.69
2022-10-06T20:10:15.227Z,81.56
2022-10-06T20:12:43.070Z,81.65
2022-10-06T20:15:12.953Z,82.01
2022-10-06T20:17:42.375Z,83.00
2022-10-06T20:20:10.245Z,83.71
2022-10-06T20:22:37.717Z,83.88
2022-10-06T20:25:07.199Z,83.73
2022-10-06T20:27:35.471Z,84.48
2022-10-06T20:30:03.883Z,83.87
2022-10-06T20:32:32.085Z,83.89
2022-10-06T20:35:00.156Z,83.54
2022-10-06T20:37:27.964Z,83.86
2022-10-06T20:40:13.949Z,83.76
2022-10-06T20:42:44.931Z,83.98
2022-10-06T20:45:12.552Z,84.21
2022-10-06T20:47:40.121Z,84.53
2022-10-06T20:50:08.166Z,84.71
2022-10-06T20:52:36.926Z,85.43
2022-10-06T20:55:06.324Z,85.19
2022-10-06T20:57:34.123Z,85.76
2022-10-06T21:00:01.663Z,85.79
2022-10-06T21:02:32.058Z,85.81
2022-10-06T21:05:00.097Z,86.32
2022-10-06T21:07:28.750Z,85.51
2022-10-06T21:09:57.866Z,85.41
2022-10-06T21:12:25.539Z,85.24
2022-10-06T21:14:57.004Z,84.84
2022-10-06T21:17:24.685Z,86.07
2022-10-06T21:19:52.279Z,86.60
2022-10-06T21:22:19.886Z,86.82
2022-10-06T21:24:48.338Z,87.71
2022-10-06T21:27:18.508Z,87.48
2022-10-06T21:29:47.855Z,87.19
2022-10-06T21:32:15.577Z,86.68
2022-10-06T21:34:43.077Z,86.06
2022-10-06T21:37:13.740Z,85.25
2022-10-06T21:39:42.253Z,85.48
2022-10-06T21:42:09.878Z,85.64
2022-10-06T21:44:37.574Z,84.71
2022-10-06T21:47:05.217Z,85.27
2022-10-06T21:49:33.563Z,84.79
2022-10-06T21:52:04.902Z,84.65
2022-10-06T21:54:33.160Z,83.27
2022-10-06T21:57:00.797Z,83.34
2022-10-06T21:59:28.475Z,85.47
2022-10-06T22:01:58.134Z,85.46
2022-10-06T22:04:26.530Z,84.87
2022-10-06T22:06:54.031Z,84.95
2022-10-06T22:09:22.182Z,84.37
2022-10-06T22:11:50.088Z,82.32
2022-10-06T22:14:19.485Z,82.42
2022-10-06T22:16:49.370Z,82.40
2022-10-06T22:19:18.029Z,82.71
2022-10-06T22:21:48.605Z,82.92
2022-10-06T22:24:19.161Z,84.11
2022-10-06T22:26:47.763Z,83.77
2022-10-06T22:29:17.920Z,83.45
2022-10-06T22:31:47.087Z,84.30
2022-10-06T22:34:18.538Z,84.44
2022-10-06T22:36:46.398Z,85.24
2022-10-06T22:39:16.923Z,84.99
2022-10-06T22:41:45.468Z,85.45
2022-10-06T22:44:13.033Z,85.78
2022-10-06T22:46:43.019Z,86.26
2022-10-06T22:49:10.774Z,86.87
2022-10-06T22:51:38.355Z,87.33
2022-10-06T22:54:05.998Z,87.80
2022-10-06T22:56:35.031Z,88.24
2022-10-06T22:59:02.666Z,87.99
2022-10-06T23:01:30.778Z,88.63
2022-10-06T23:03:58.532Z,89.16
2022-10-06T23:06:27.191Z,89.19
2022-10-06T23:08:56.141Z,89.78
2022-10-06T23:11:23.955Z,90.24
2022-10-06T23:13:53.054Z,90.68
2022-10-06T23:16:21.794Z,91.45
2022-10-06T23:18:49.694Z,92.14
2022-10-06T23:21:21.817Z,92.18
2022-10-06T23:23:59.287Z,92.63
2022-10-06T23:26:29.140Z,93.42
2022-10-06T23:28:59.046Z,93.75
2022-10-06T23:31:27.154Z,94.10
2022-10-06T23:33:55.264Z,94.23
2022-10-06T23:36:23.174Z,94.58
2022-10-06T23:38:50.947Z,95.31
2022-10-06T23:41:19.391Z,95.49
2022-10-06T23:43:46.958Z,95.29
2022-10-06T23:46:14.826Z,95.74
2022-10-06T23:48:43.054Z,96.38
2022-10-06T23:51:13.367Z,96.38
2022-10-06T23:53:41.266Z,97.20
2022-10-06T23:56:09.595Z,97.49
2022-10-06T23:58:37.182Z,97.82
